sensor_id;sensor_type;location;lat;lon;timestamp;temperature;humidity
43862;DHT22;29510;52.140;5.034;2022-08-11T00:00:49;20.00;99.90
43862;DHT22;29510;52.140;5.034;2022-08-11T00:10:56;19.90;99.90
43862;DHT22;29510;52.140;5.034;2022-08-11T00:20:59;19.80;99.90
43862;DHT22;29510;52.140;5.034;2022-08-11T00:31:35;19.60;99.90
43862;DHT22;29510;52.140;5.034;2022-08-11T00:41:55;19.50;99.90
43862;DHT22;29510;52.140;5.034;2022-08-11T01:13:17;19.20;99.90
43862;DHT22;29510;52.140;5.034;2022-08-11T01:24:19;19.10;99.90
43862;DHT22;29510;52.140;5.034;2022-08-11T01:35:08;19.00;99.90
43862;DHT22;29510;52.140;5.034;2022-08-11T01:56:03;18.70;99.90
43862;DHT22;29510;52.140;5.034;2022-08-11T02:06:41;18.60;99.90
43862;DHT22;29510;52.140;5.034;2022-08-11T02:17:16;18.60;99.90
43862;DHT22;29510;52.140;5.034;2022-08-11T02:27:22;18.40;99.90
43862;DHT22;29510;52.140;5.034;2022-08-11T02:37:38;18.40;99.90
43862;DHT22;29510;52.140;5.034;2022-08-11T02:48:02;18.30;99.90
43862;DHT22;29510;52.140;5.034;2022-08-11T02:58:35;18.30;99.90
43862;DHT22;29510;52.140;5.034;2022-08-11T03:30:18;18.10;99.90
43862;DHT22;29510;52.140;5.034;2022-08-11T03:51:30;18.00;99.90
43862;DHT22;29510;52.140;5.034;2022-08-11T04:32:25;17.70;99.90
43862;DHT22;29510;52.140;5.034;2022-08-11T04:53:45;17.70;99.90
43862;DHT22;29510;52.140;5.034;2022-08-11T05:14:49;17.80;99.90
43862;DHT22;29510;52.140;5.034;2022-08-11T05:25:13;17.80;99.90
43862;DHT22;29510;52.140;5.034;2022-08-11T05:35:59;18.10;99.90
43862;DHT22;29510;52.140;5.034;2022-08-11T05:46:02;18.60;99.90
43862;DHT22;29510;52.140;5.034;2022-08-11T05:56:22;19.00;99.90
43862;DHT22;29510;52.140;5.034;2022-08-11T06:06:26;19.50;99.90
43862;DHT22;29510;52.140;5.034;2022-08-11T06:16:28;19.80;99.90
43862;DHT22;29510;52.140;5.034;2022-08-11T06:26:30;20.20;99.90
43862;DHT22;29510;52.140;5.034;2022-08-11T06:36:39;20.50;99.90
43862;DHT22;29510;52.140;5.034;2022-08-11T06:46:46;20.90;99.90
43862;DHT22;29510;52.140;5.034;2022-08-11T06:56:48;21.10;99.90
43862;DHT22;29510;52.140;5.034;2022-08-11T07:07:36;21.10;99.90
43862;DHT22;29510;52.140;5.034;2022-08-11T07:18:06;21.40;99.90
43862;DHT22;29510;52.140;5.034;2022-08-11T07:28:30;21.90;99.90
43862;DHT22;29510;52.140;5.034;2022-08-11T07:38:53;22.00;99.90
43862;DHT22;29510;52.140;5.034;2022-08-11T07:48:56;22.20;99.90
43862;DHT22;29510;52.140;5.034;2022-08-11T07:59:17;22.40;99.90
43862;DHT22;29510;52.140;5.034;2022-08-11T08:09:38;22.70;99.90
43862;DHT22;29510;52.140;5.034;2022-08-11T08:19:59;23.00;99.90
43862;DHT22;29510;52.140;5.034;2022-08-11T08:30:02;23.30;99.90
43862;DHT22;29510;52.140;5.034;2022-08-11T08:40:22;23.70;99.90
43862;DHT22;29510;52.140;5.034;2022-08-11T08:50:26;24.20;99.90
43862;DHT22;29510;52.140;5.034;2022-08-11T09:00:51;24.80;99.90
43862;DHT22;29510;52.140;5.034;2022-08-11T09:10:55;25.20;99.90
43862;DHT22;29510;52.140;5.034;2022-08-11T09:21:16;25.70;99.90
43862;DHT22;29510;52.140;5.034;2022-08-11T09:31:21;26.20;99.90
43862;DHT22;29510;52.140;5.034;2022-08-11T09:41:22;26.60;99.90
43862;DHT22;29510;52.140;5.034;2022-08-11T09:51:24;27.10;99.90
43862;DHT22;29510;52.140;5.034;2022-08-11T10:01:34;27.70;99.20
43862;DHT22;29510;52.140;5.034;2022-08-11T10:11:39;28.20;99.40
43862;DHT22;29510;52.140;5.034;2022-08-11T10:21:43;28.60;98.10
43862;DHT22;29510;52.140;5.034;2022-08-11T10:31:44;28.50;97.70
43862;DHT22;29510;52.140;5.034;2022-08-11T10:42:05;28.70;99.00
43862;DHT22;29510;52.140;5.034;2022-08-11T10:52:26;29.00;97.60
43862;DHT22;29510;52.140;5.034;2022-08-11T11:02:47;29.20;96.70
43862;DHT22;29510;52.140;5.034;2022-08-11T11:12:53;29.60;95.30
43862;DHT22;29510;52.140;5.034;2022-08-11T11:43:42;31.10;90.20
43862;DHT22;29510;52.140;5.034;2022-08-11T11:53:44;31.60;85.10
43862;DHT22;29510;52.140;5.034;2022-08-11T12:03:49;31.90;84.60
43862;DHT22;29510;52.140;5.034;2022-08-11T12:13:56;32.20;82.30
43862;DHT22;29510;52.140;5.034;2022-08-11T12:24:00;32.50;87.10
43862;DHT22;29510;52.140;5.034;2022-08-11T12:34:20;32.90;78.70
43862;DHT22;29510;52.140;5.034;2022-08-11T12:44:27;33.20;80.30
43862;DHT22;29510;52.140;5.034;2022-08-11T12:54:54;33.10;79.20
43862;DHT22;29510;52.140;5.034;2022-08-11T13:04:57;33.20;76.50
43862;DHT22;29510;52.140;5.034;2022-08-11T13:15:03;33.40;75.70
43862;DHT22;29510;52.140;5.034;2022-08-11T13:25:05;33.80;74.70
43862;DHT22;29510;52.140;5.034;2022-08-11T13:35:08;34.10;74.90
43862;DHT22;29510;52.140;5.034;2022-08-11T13:45:10;34.50;71.20
43862;DHT22;29510;52.140;5.034;2022-08-11T13:55:12;35.00;68.80
43862;DHT22;29510;52.140;5.034;2022-08-11T14:05:27;34.90;75.60
43862;DHT22;29510;52.140;5.034;2022-08-11T14:15:33;34.10;77.60
43862;DHT22;29510;52.140;5.034;2022-08-11T14:25:34;33.10;81.70
43862;DHT22;29510;52.140;5.034;2022-08-11T14:35:36;32.30;82.80
43862;DHT22;29510;52.140;5.034;2022-08-11T14:45:38;31.80;84.60
43862;DHT22;29510;52.140;5.034;2022-08-11T14:55:59;31.40;85.30
43862;DHT22;29510;52.140;5.034;2022-08-11T15:06:19;31.20;86.30
43862;DHT22;29510;52.140;5.034;2022-08-11T15:16:21;31.00;86.10
43862;DHT22;29510;52.140;5.034;2022-08-11T15:26:41;30.70;86.90
43862;DHT22;29510;52.140;5.034;2022-08-11T15:37:07;30.60;86.90
43862;DHT22;29510;52.140;5.034;2022-08-11T15:47:34;30.40;86.80
43862;DHT22;29510;52.140;5.034;2022-08-11T15:57:38;30.30;86.80
43862;DHT22;29510;52.140;5.034;2022-08-11T16:07:59;30.00;88.40
43862;DHT22;29510;52.140;5.034;2022-08-11T16:18:04;29.90;88.90
43862;DHT22;29510;52.140;5.034;2022-08-11T16:28:08;29.80;88.40
43862;DHT22;29510;52.140;5.034;2022-08-11T16:38:11;29.50;89.70
43862;DHT22;29510;52.140;5.034;2022-08-11T16:48:33;29.30;90.10
43862;DHT22;29510;52.140;5.034;2022-08-11T16:58:37;29.20;90.80
43862;DHT22;29510;52.140;5.034;2022-08-11T17:09:00;28.90;91.20
43862;DHT22;29510;52.140;5.034;2022-08-11T17:19:24;28.70;91.20
43862;DHT22;29510;52.140;5.034;2022-08-11T17:39:37;28.30;92.10
43862;DHT22;29510;52.140;5.034;2022-08-11T17:49:39;28.00;93.00
43862;DHT22;29510;52.140;5.034;2022-08-11T17:59:41;27.90;94.10
43862;DHT22;29510;52.140;5.034;2022-08-11T18:09:52;27.60;94.50
43862;DHT22;29510;52.140;5.034;2022-08-11T18:20:12;27.40;95.00
43862;DHT22;29510;52.140;5.034;2022-08-11T18:30:35;27.10;96.00
43862;DHT22;29510;52.140;5.034;2022-08-11T18:40:58;26.90;96.70
43862;DHT22;29510;52.140;5.034;2022-08-11T18:51:18;26.60;97.80
43862;DHT22;29510;52.140;5.034;2022-08-11T19:01:38;26.30;98.30
43862;DHT22;29510;52.140;5.034;2022-08-11T19:11:59;26.10;99.50
43862;DHT22;29510;52.140;5.034;2022-08-11T19:22:20;25.80;99.90
43862;DHT22;29510;52.140;5.034;2022-08-11T19:32:41;25.60;99.90
43862;DHT22;29510;52.140;5.034;2022-08-11T19:43:02;25.30;99.90
43862;DHT22;29510;52.140;5.034;2022-08-11T19:53:23;25.00;99.90
43862;DHT22;29510;52.140;5.034;2022-08-11T20:03:44;24.70;99.90
43862;DHT22;29510;52.140;5.034;2022-08-11T20:14:05;24.50;99.90
43862;DHT22;29510;52.140;5.034;2022-08-11T20:24:27;24.20;99.90
43862;DHT22;29510;52.140;5.034;2022-08-11T20:34:48;23.90;99.90
43862;DHT22;29510;52.140;5.034;2022-08-11T20:45:09;23.80;99.90
43862;DHT22;29510;52.140;5.034;2022-08-11T20:55:29;23.70;99.90
43862;DHT22;29510;52.140;5.034;2022-08-11T21:05:49;23.50;99.90
43862;DHT22;29510;52.140;5.034;2022-08-11T21:16:13;23.40;99.90
43862;DHT22;29510;52.140;5.034;2022-08-11T21:26:36;23.40;99.90
43862;DHT22;29510;52.140;5.034;2022-08-11T21:36:59;23.20;99.90
43862;DHT22;29510;52.140;5.034;2022-08-11T21:47:20;23.00;99.90
43862;DHT22;29510;52.140;5.034;2022-08-11T21:57:42;22.80;99.90
43862;DHT22;29510;52.140;5.034;2022-08-11T22:08:03;22.70;99.90
43862;DHT22;29510;52.140;5.034;2022-08-11T22:18:24;22.60;99.90
43862;DHT22;29510;52.140;5.034;2022-08-11T22:28:44;22.60;99.90
43862;DHT22;29510;52.140;5.034;2022-08-11T22:39:05;22.40;99.90
43862;DHT22;29510;52.140;5.034;2022-08-11T22:49:26;22.30;99.90
43862;DHT22;29510;52.140;5.034;2022-08-11T22:59:47;22.10;99.90
43862;DHT22;29510;52.140;5.034;2022-08-11T23:10:07;21.90;99.90
43862;DHT22;29510;52.140;5.034;2022-08-11T23:20:27;21.80;99.90
43862;DHT22;29510;52.140;5.034;2022-08-11T23:30:49;21.70;99.90
43862;DHT22;29510;52.140;5.034;2022-08-11T23:41:14;21.50;99.90
43862;DHT22;29510;52.140;5.034;2022-08-11T23:51:34;21.40;99.90
